sensor_id;sensor_type;location;lat;lon;timestamp;pressure;altitude;pressure_sealevel;temperature;humidity
51178;BME280;37243;49.814;8.652;2022-09-17T00:01:42;99878.53;;;27.05;35.97
51178;BME280;37243;49.814;8.652;2022-09-17T00:04:10;99867.97;;;27.07;35.93
51178;BME280;37243;49.814;8.652;2022-09-17T00:06:38;99877.06;;;27.08;35.85
51178;BME280;37243;49.814;8.652;2022-09-17T00:09:07;99869.16;;;27.06;35.55
51178;BME280;37243;49.814;8.652;2022-09-17T00:11:38;99879.00;;;27.07;35.49
51178;BME280;37243;49.814;8.652;2022-09-17T00:14:09;99882.22;;;27.09;36.14
51178;BME280;37243;49.814;8.652;2022-09-17T00:16:44;99870.72;;;27.07;35.53
51178;BME280;37243;49.814;8.652;2022-09-17T00:19:16;99874.66;;;27.06;36.15
51178;BME280;37243;49.814;8.652;2022-09-17T00:21:45;99880.97;;;27.07;35.91
51178;BME280;37243;49.814;8.652;2022-09-17T00:24:14;99889.22;;;27.07;35.77
51178;BME280;37243;49.814;8.652;2022-09-17T00:26:43;99887.25;;;27.07;36.09
51178;BME280;37243;49.814;8.652;2022-09-17T00:29:12;99879.00;;;27.07;35.43
51178;BME280;37243;49.814;8.652;2022-09-17T00:31:43;99880.97;;;27.07;35.40
51178;BME280;37243;49.814;8.652;2022-09-17T00:34:11;99884.06;;;27.05;35.93
51178;BME280;37243;49.814;8.652;2022-09-17T00:36:40;99887.63;;;27.05;35.71
51178;BME280;37243;49.814;8.652;2022-09-17T00:39:10;99874.66;;;27.06;35.97
51178;BME280;37243;49.814;8.652;2022-09-17T00:41:41;99884.50;;;27.07;35.76
51178;BME280;37243;49.814;8.652;2022-09-17T00:44:44;99885.66;;;27.06;36.03
51178;BME280;37243;49.814;8.652;2022-09-17T00:47:21;99881.28;;;27.05;35.74
51178;BME280;37243;49.814;8.652;2022-09-17T00:49:53;99880.16;;;27.06;36.13
51178;BME280;37243;49.814;8.652;2022-09-17T00:52:27;99889.91;;;27.03;35.79
51178;BME280;37243;49.814;8.652;2022-09-17T00:55:00;99884.84;;;27.05;35.32
51178;BME280;37243;49.814;8.652;2022-09-17T00:57:30;99882.91;;;27.06;35.51
51178;BME280;37243;49.814;8.652;2022-09-17T00:59:58;99888.66;;;27.01;35.32
51178;BME280;37243;49.814;8.652;2022-09-17T01:02:30;99889.44;;;27.01;35.29
51178;BME280;37243;49.814;8.652;2022-09-17T01:04:58;99883.59;;;27.03;35.31
51178;BME280;37243;49.814;8.652;2022-09-17T01:07:37;99886.34;;;27.03;36.12
51178;BME280;37243;49.814;8.652;2022-09-17T01:10:23;99891.19;;;27.06;35.06
51178;BME280;37243;49.814;8.652;2022-09-17T01:13:07;99891.84;;;27.03;35.51
51178;BME280;37243;49.814;8.652;2022-09-17T01:15:41;99892.31;;;27.05;35.25
51178;BME280;37243;49.814;8.652;2022-09-17T01:18:33;99898.63;;;27.05;35.89
51178;BME280;37243;49.814;8.652;2022-09-17T01:21:36;99898.97;;;27.04;35.45
51178;BME280;37243;49.814;8.652;2022-09-17T01:24:45;99899.66;;;27.01;35.24
51178;BME280;37243;49.814;8.652;2022-09-17T01:30:33;99898.84;;;27.00;35.24
51178;BME280;37243;49.814;8.652;2022-09-17T01:33:07;99907.94;;;27.01;35.19
51178;BME280;37243;49.814;8.652;2022-09-17T01:35:47;99913.06;;;27.02;35.42
51178;BME280;37243;49.814;8.652;2022-09-17T01:38:24;99915.03;;;27.02;35.10
51178;BME280;37243;49.814;8.652;2022-09-17T01:40:58;99919.38;;;27.03;35.53
51178;BME280;37243;49.814;8.652;2022-09-17T01:43:34;99923.28;;;27.02;35.41
51178;BME280;37243;49.814;8.652;2022-09-17T01:46:12;99919.72;;;27.01;35.77
51178;BME280;37243;49.814;8.652;2022-09-17T01:48:46;99914.69;;;27.03;35.33
51178;BME280;37243;49.814;8.652;2022-09-17T01:51:19;99923.63;;;27.00;35.79
51178;BME280;37243;49.814;8.652;2022-09-17T01:53:52;99925.59;;;27.00;35.29
51178;BME280;37243;49.814;8.652;2022-09-17T01:56:25;99924.78;;;26.99;35.71
51178;BME280;37243;49.814;8.652;2022-09-17T01:58:59;99918.47;;;26.99;35.06
51178;BME280;37243;49.814;8.652;2022-09-17T02:01:32;99924.78;;;26.99;35.23
51178;BME280;37243;49.814;8.652;2022-09-17T02:04:06;99918.47;;;26.99;35.50
51178;BME280;37243;49.814;8.652;2022-09-17T02:06:37;99911.00;;;26.99;35.51
51178;BME280;37243;49.814;8.652;2022-09-17T02:09:12;99907.56;;;27.02;35.66
51178;BME280;37243;49.814;8.652;2022-09-17T02:11:44;99914.22;;;27.01;35.41
51178;BME280;37243;49.814;8.652;2022-09-17T02:14:20;99908.38;;;27.03;35.39
51178;BME280;37243;49.814;8.652;2022-09-17T02:16:55;99913.75;;;26.99;35.82
51178;BME280;37243;49.814;8.652;2022-09-17T02:19:30;99917.78;;;27.02;35.73
51178;BME280;37243;49.814;8.652;2022-09-17T02:22:02;99914.22;;;27.01;35.25
51178;BME280;37243;49.814;8.652;2022-09-17T02:24:36;99913.75;;;26.99;35.72
51178;BME280;37243;49.814;8.652;2022-09-17T02:27:15;99918.94;;;27.01;34.96
51178;BME280;37243;49.814;8.652;2022-09-17T02:29:46;99918.13;;;27.00;35.53
51178;BME280;37243;49.814;8.652;2022-09-17T02:32:17;99921.22;;;26.99;35.59
51178;BME280;37243;49.814;8.652;2022-09-17T02:34:45;99923.97;;;26.99;35.07
51178;BME280;37243;49.814;8.652;2022-09-17T02:37:14;99920.88;;;27.00;35.71
51178;BME280;37243;49.814;8.652;2022-09-17T02:39:42;99917.66;;;26.98;35.11
51178;BME280;37243;49.814;8.652;2022-09-17T02:42:20;99914.13;;;26.98;35.83
51178;BME280;37243;49.814;8.652;2022-09-17T02:44:56;99912.16;;;26.98;35.18
51178;BME280;37243;49.814;8.652;2022-09-17T02:47:41;99909.88;;;27.00;35.24
51178;BME280;37243;49.814;8.652;2022-09-17T02:50:29;99911.47;;;27.01;35.27
51178;BME280;37243;49.814;8.652;2022-09-17T02:53:14;99905.16;;;27.01;35.30
51178;BME280;37243;49.814;8.652;2022-09-17T02:55:54;99910.69;;;27.01;35.77
51178;BME280;37243;49.814;8.652;2022-09-17T02:58:30;99901.94;;;26.99;35.62
51178;BME280;37243;49.814;8.652;2022-09-17T03:01:03;99905.84;;;26.98;35.33
51178;BME280;37243;49.814;8.652;2022-09-17T03:03:39;99905.50;;;26.99;35.66
51178;BME280;37243;49.814;8.652;2022-09-17T03:06:09;99906.31;;;27.00;35.02
51178;BME280;37243;49.814;8.652;2022-09-17T03:08:40;99904.38;;;27.00;34.96
51178;BME280;37243;49.814;8.652;2022-09-17T03:11:10;99901.63;;;27.00;34.84
51178;BME280;37243;49.814;8.652;2022-09-17T03:13:40;99904.38;;;27.00;34.94
51178;BME280;37243;49.814;8.652;2022-09-17T03:16:08;99903.78;;;26.95;35.76
51178;BME280;37243;49.814;8.652;2022-09-17T03:18:39;99908.63;;;26.98;35.05
51178;BME280;37243;49.814;8.652;2022-09-17T03:21:07;99896.34;;;26.95;34.92
51178;BME280;37243;49.814;8.652;2022-09-17T03:23:36;99906.53;;;26.95;35.38
51178;BME280;37243;49.814;8.652;2022-09-17T03:26:05;99902.16;;;26.94;35.06
51178;BME280;37243;49.814;8.652;2022-09-17T03:28:33;99905.38;;;26.96;35.61
51178;BME280;37243;49.814;8.652;2022-09-17T03:31:02;99910.88;;;26.96;34.96
51178;BME280;37243;49.814;8.652;2022-09-17T03:33:41;99911.38;;;26.98;35.17
51178;BME280;37243;49.814;8.652;2022-09-17T03:36:10;99908.13;;;26.96;35.62
51178;BME280;37243;49.814;8.652;2022-09-17T03:38:38;99910.88;;;26.96;35.56
51178;BME280;37243;49.814;8.652;2022-09-17T03:41:06;99904.94;;;26.94;35.57
51178;BME280;37243;49.814;8.652;2022-09-17T03:43:35;99909.28;;;26.95;35.51
51178;BME280;37243;49.814;8.652;2022-09-17T03:46:04;99911.69;;;26.96;34.88
51178;BME280;37243;49.814;8.652;2022-09-17T03:48:33;99913.31;;;26.97;35.65
51178;BME280;37243;49.814;8.652;2022-09-17T03:51:06;99919.13;;;26.96;35.53
51178;BME280;37243;49.814;8.652;2022-09-17T03:53:34;99915.25;;;26.97;35.17
51178;BME280;37243;49.814;8.652;2022-09-17T03:56:05;99931.78;;;26.97;35.46
51178;BME280;37243;49.814;8.652;2022-09-17T03:58:34;99926.72;;;26.99;34.95
51178;BME280;37243;49.814;8.652;2022-09-17T04:01:03;99931.78;;;26.97;35.05
51178;BME280;37243;49.814;8.652;2022-09-17T04:03:31;99924.66;;;26.96;34.96
51178;BME280;37243;49.814;8.652;2022-09-17T04:06:00;99929.47;;;26.99;35.10
51178;BME280;37243;49.814;8.652;2022-09-17T04:08:31;99931.78;;;26.97;34.88
51178;BME280;37243;49.814;8.652;2022-09-17T04:11:00;99929.69;;;26.94;35.48
51178;BME280;37243;49.814;8.652;2022-09-17T04:13:29;99936.91;;;26.98;34.87
51178;BME280;37243;49.814;8.652;2022-09-17T04:15:57;99940.47;;;26.99;34.73
51178;BME280;37243;49.814;8.652;2022-09-17T04:18:25;99938.41;;;26.96;34.85
51178;BME280;37243;49.814;8.652;2022-09-17T04:20:54;99935.66;;;26.96;35.07
51178;BME280;37243;49.814;8.652;2022-09-17T04:23:22;99938.09;;;26.97;34.79
51178;BME280;37243;49.814;8.652;2022-09-17T04:25:53;99931.78;;;26.97;35.15
51178;BME280;37243;49.814;8.652;2022-09-17T04:28:21;99933.38;;;26.98;35.12
51178;BME280;37243;49.814;8.652;2022-09-17T04:30:50;99940.84;;;26.97;34.94
51178;BME280;37243;49.814;8.652;2022-09-17T04:33:18;99930.28;;;26.99;34.97
51178;BME280;37243;49.814;8.652;2022-09-17T04:35:46;99929.38;;;26.95;35.31
51178;BME280;37243;49.814;8.652;2022-09-17T04:38:14;99934.97;;;26.99;34.75
51178;BME280;37243;49.814;8.652;2022-09-17T04:40:45;99936.59;;;27.00;35.30
51178;BME280;37243;49.814;8.652;2022-09-17T04:43:16;99934.53;;;26.97;35.49
51178;BME280;37243;49.814;8.652;2022-09-17T04:45:45;99936.59;;;27.00;35.16
51178;BME280;37243;49.814;8.652;2022-09-17T04:48:15;99948.28;;;26.97;35.55
51178;BME280;37243;49.814;8.652;2022-09-17T04:50:43;99948.75;;;26.99;35.20
51178;BME280;37243;49.814;8.652;2022-09-17T04:53:11;99951.50;;;26.99;35.65
51178;BME280;37243;49.814;8.652;2022-09-17T04:55:41;99958.50;;;26.96;35.26
51178;BME280;37243;49.814;8.652;2022-09-17T04:58:10;99953.09;;;27.00;35.68
51178;BME280;37243;49.814;8.652;2022-09-17T05:00:41;99953.78;;;26.97;35.43
51178;BME280;37243;49.814;8.652;2022-09-17T05:03:09;99955.41;;;26.98;35.18
51178;BME280;37243;49.814;8.652;2022-09-17T05:05:37;99961.38;;;27.00;35.69
51178;BME280;37243;49.814;8.652;2022-09-17T05:08:05;99960.56;;;26.99;35.15
51178;BME280;37243;49.814;8.652;2022-09-17T05:10:34;99973.50;;;26.99;35.49
51178;BME280;37243;49.814;8.652;2022-09-17T05:13:02;99974.69;;;26.98;35.85
51178;BME280;37243;49.814;8.652;2022-09-17T05:15:30;99970.31;;;26.97;35.54
51178;BME280;37243;49.814;8.652;2022-09-17T05:18:02;99975.00;;;26.96;35.14
51178;BME280;37243;49.814;8.652;2022-09-17T05:20:30;99987.50;;;26.94;35.34
51178;BME280;37243;49.814;8.652;2022-09-17T05:22:59;99978.56;;;26.97;35.95
51178;BME280;37243;49.814;8.652;2022-09-17T05:25:27;99990.03;;;26.99;35.69
51178;BME280;37243;49.814;8.652;2022-09-17T05:27:55;99990.03;;;26.99;36.04
51178;BME280;37243;49.814;8.652;2022-09-17T05:30:25;99981.78;;;26.99;35.81
51178;BME280;37243;49.814;8.652;2022-09-17T05:33:01;99989.22;;;26.98;36.00
51178;BME280;37243;49.814;8.652;2022-09-17T05:35:31;99988.09;;;26.99;35.93
51178;BME280;37243;49.814;8.652;2022-09-17T05:38:01;99988.09;;;26.99;36.02
51178;BME280;37243;49.814;8.652;2022-09-17T05:40:30;99982.94;;;26.98;36.45
51178;BME280;37243;49.814;8.652;2022-09-17T05:43:00;99984.53;;;26.99;36.00
51178;BME280;37243;49.814;8.652;2022-09-17T05:45:29;99986.16;;;27.00;35.68
51178;BME280;37243;49.814;8.652;2022-09-17T05:48:01;99982.25;;;27.01;35.89
51178;BME280;37243;49.814;8.652;2022-09-17T05:50:31;99993.94;;;26.98;35.77
51178;BME280;37243;49.814;8.652;2022-09-17T05:53:02;99987.50;;;26.94;36.46
51178;BME280;37243;49.814;8.652;2022-09-17T05:55:32;99986.03;;;26.96;36.32
51178;BME280;37243;49.814;8.652;2022-09-17T05:58:07;99995.44;;;26.95;35.70
51178;BME280;37243;49.814;8.652;2022-09-17T06:00:36;100000.94;;;26.95;36.01
51178;BME280;37243;49.814;8.652;2022-09-17T06:03:08;100002.41;;;26.93;35.58
51178;BME280;37243;49.814;8.652;2022-09-17T06:05:37;100004.84;;;26.94;36.31
51178;BME280;37243;49.814;8.652;2022-09-17T06:08:06;100000.13;;;26.95;36.73
51178;BME280;37243;49.814;8.652;2022-09-17T06:10:35;100000.81;;;26.92;36.33
51178;BME280;37243;49.814;8.652;2022-09-17T06:13:03;100004.03;;;26.94;36.35
51178;BME280;37243;49.814;8.652;2022-09-17T06:15:31;100002.88;;;26.95;36.28
51178;BME280;37243;49.814;8.652;2022-09-17T06:18:00;100004.03;;;26.94;36.11
51178;BME280;37243;49.814;8.652;2022-09-17T06:20:31;100006.78;;;26.94;36.21
51178;BME280;37243;49.814;8.652;2022-09-17T06:22:59;100007.22;;;26.96;36.60
51178;BME280;37243;49.814;8.652;2022-09-17T06:25:28;100011.25;;;26.98;36.47
51178;BME280;37243;49.814;8.652;2022-09-17T06:27:56;100009.31;;;26.99;36.55
51178;BME280;37243;49.814;8.652;2022-09-17T06:30:24;100012.06;;;26.99;36.38
51178;BME280;37243;49.814;8.652;2022-09-17T06:32:53;100011.25;;;26.98;37.09
51178;BME280;37243;49.814;8.652;2022-09-17T06:35:21;100013.91;;;26.95;36.79
51178;BME280;37243;49.814;8.652;2022-09-17T06:37:52;100012.28;;;26.94;36.81
51178;BME280;37243;49.814;8.652;2022-09-17T06:40:20;100009.53;;;26.94;37.11
51178;BME280;37243;49.814;8.652;2022-09-17T06:42:49;100017.34;;;26.92;37.43
51178;BME280;37243;49.814;8.652;2022-09-17T06:45:17;100020.22;;;26.95;37.47
51178;BME280;37243;49.814;8.652;2022-09-17T06:47:46;100017.47;;;26.95;37.24
51178;BME280;37243;49.814;8.652;2022-09-17T06:50:14;100015.84;;;26.94;37.33
51178;BME280;37243;49.814;8.652;2022-09-17T06:52:47;100021.66;;;26.93;37.19
51178;BME280;37243;49.814;8.652;2022-09-17T06:55:19;100020.22;;;26.95;37.67
51178;BME280;37243;49.814;8.652;2022-09-17T06:57:47;100018.59;;;26.94;37.71
51178;BME280;37243;49.814;8.652;2022-09-17T07:00:15;100021.66;;;26.93;37.62
51178;BME280;37243;49.814;8.652;2022-09-17T07:02:53;100018.13;;;26.92;37.94
51178;BME280;37243;49.814;8.652;2022-09-17T07:05:22;100014.56;;;26.92;38.13
51178;BME280;37243;49.814;8.652;2022-09-17T07:07:50;100012.63;;;26.92;37.87
51178;BME280;37243;49.814;8.652;2022-09-17T07:10:22;100020.09;;;26.92;37.92
51178;BME280;37243;49.814;8.652;2022-09-17T07:12:51;100021.22;;;26.91;37.86
51178;BME280;37243;49.814;8.652;2022-09-17T07:15:19;100024.44;;;26.93;38.44
51178;BME280;37243;49.814;8.652;2022-09-17T07:17:48;100023.75;;;26.96;38.05
51178;BME280;37243;49.814;8.652;2022-09-17T07:20:16;100031.22;;;26.95;38.01
51178;BME280;37243;49.814;8.652;2022-09-17T07:22:44;100034.75;;;26.96;38.38
51178;BME280;37243;49.814;8.652;2022-09-17T07:25:13;100036.38;;;26.97;38.12
51178;BME280;37243;49.814;8.652;2022-09-17T07:27:43;100038.69;;;26.95;38.23
51178;BME280;37243;49.814;8.652;2022-09-17T07:30:12;100031.22;;;26.95;38.23
51178;BME280;37243;49.814;8.652;2022-09-17T07:32:40;100023.75;;;26.96;37.79
51178;BME280;37243;49.814;8.652;2022-09-17T07:35:09;100030.88;;;26.97;37.48
51178;BME280;37243;49.814;8.652;2022-09-17T07:37:37;100027.09;;;27.01;37.96
51178;BME280;37243;49.814;8.652;2022-09-17T07:40:07;100035.03;;;27.03;37.66
51178;BME280;37243;49.814;8.652;2022-09-17T07:42:35;100031.00;;;27.00;37.73
51178;BME280;37243;49.814;8.652;2022-09-17T07:45:07;100028.84;;;27.06;37.25
51178;BME280;37243;49.814;8.652;2022-09-17T07:47:39;100033.53;;;27.05;37.31
51178;BME280;37243;49.814;8.652;2022-09-17T07:50:09;100032.28;;;27.03;37.60
51178;BME280;37243;49.814;8.652;2022-09-17T07:52:37;100038.91;;;27.02;37.71
51178;BME280;37243;49.814;8.652;2022-09-17T07:55:06;100028.38;;;27.04;37.74
51178;BME280;37243;49.814;8.652;2022-09-17T07:57:34;100035.84;;;27.03;37.29
51178;BME280;37243;49.814;8.652;2022-09-17T08:00:06;100031.59;;;27.06;37.32
51178;BME280;37243;49.814;8.652;2022-09-17T08:02:35;100038.22;;;27.05;37.97
51178;BME280;37243;49.814;8.652;2022-09-17T08:05:04;100036.16;;;27.02;38.14
51178;BME280;37243;49.814;8.652;2022-09-17T08:07:32;100038.00;;;26.98;37.35
51178;BME280;37243;49.814;8.652;2022-09-17T08:10:00;100047.03;;;26.98;37.01
51178;BME280;37243;49.814;8.652;2022-09-17T08:12:29;100037.50;;;26.96;36.14
51178;BME280;37243;49.814;8.652;2022-09-17T08:14:57;100043.50;;;26.98;36.47
51178;BME280;37243;49.814;8.652;2022-09-17T08:17:28;100035.25;;;26.98;36.39
51178;BME280;37243;49.814;8.652;2022-09-17T08:19:57;100037.66;;;26.99;36.94
51178;BME280;37243;49.814;8.652;2022-09-17T08:22:25;100042.00;;;27.00;37.26
51178;BME280;37243;49.814;8.652;2022-09-17T08:24:55;100030.06;;;26.96;37.28
51178;BME280;37243;49.814;8.652;2022-09-17T08:27:24;100046.25;;;26.98;38.20
51178;BME280;37243;49.814;8.652;2022-09-17T08:29:52;100039.47;;;26.95;38.22
51178;BME280;37243;49.814;8.652;2022-09-17T08:32:21;100038.31;;;26.96;38.38
51178;BME280;37243;49.814;8.652;2022-09-17T08:34:51;100039.47;;;26.95;38.34
51178;BME280;37243;49.814;8.652;2022-09-17T08:37:20;100043.38;;;26.94;38.43
51178;BME280;37243;49.814;8.652;2022-09-17T08:39:48;100041.75;;;26.93;37.88
51178;BME280;37243;49.814;8.652;2022-09-17T08:42:22;100039.34;;;26.92;38.37
51178;BME280;37243;49.814;8.652;2022-09-17T08:44:56;100046.94;;;26.95;38.51
51178;BME280;37243;49.814;8.652;2022-09-17T08:47:27;100038.69;;;26.95;38.16
51178;BME280;37243;49.814;8.652;2022-09-17T08:50:02;100045.78;;;26.96;38.51
51178;BME280;37243;49.814;8.652;2022-09-17T08:52:57;100031.56;;;26.94;38.12
51178;BME280;37243;49.814;8.652;2022-09-17T08:55:36;100041.88;;;26.97;38.37
51178;BME280;37243;49.814;8.652;2022-09-17T09:01:10;100054.03;;;26.96;38.43
51178;BME280;37243;49.814;8.652;2022-09-17T09:03:51;100049.00;;;26.98;38.41
51178;BME280;37243;49.814;8.652;2022-09-17T09:06:30;100054.53;;;26.98;38.48
51178;BME280;37243;49.814;8.652;2022-09-17T09:09:04;100054.53;;;26.98;38.77
51178;BME280;37243;49.814;8.652;2022-09-17T09:11:34;100048.66;;;26.99;37.94
51178;BME280;37243;49.814;8.652;2022-09-17T09:14:06;100047.16;;;27.02;38.35
51178;BME280;37243;49.814;8.652;2022-09-17T09:16:40;100040.53;;;27.03;38.40
51178;BME280;37243;49.814;8.652;2022-09-17T09:19:19;100036.63;;;27.04;38.43
51178;BME280;37243;49.814;8.652;2022-09-17T09:22:00;100038.22;;;27.05;38.71
51178;BME280;37243;49.814;8.652;2022-09-17T09:24:38;100039.84;;;27.06;38.76
51178;BME280;37243;49.814;8.652;2022-09-17T09:27:15;100042.25;;;27.08;38.72
51178;BME280;37243;49.814;8.652;2022-09-17T09:29:56;100041.44;;;27.07;38.31
51178;BME280;37243;49.814;8.652;2022-09-17T09:32:54;100037.56;;;27.08;38.04
51178;BME280;37243;49.814;8.652;2022-09-17T09:35:26;100036.75;;;27.08;38.55
51178;BME280;37243;49.814;8.652;2022-09-17T09:38:01;100038.22;;;27.05;38.45
51178;BME280;37243;49.814;8.652;2022-09-17T09:40:36;100042.59;;;27.06;38.88
51178;BME280;37243;49.814;8.652;2022-09-17T09:43:13;100031.13;;;27.04;38.84
51178;BME280;37243;49.814;8.652;2022-09-17T09:46:13;100033.66;;;27.09;38.50
51178;BME280;37243;49.814;8.652;2022-09-17T09:48:52;100038.50;;;27.12;38.49
51178;BME280;37243;49.814;8.652;2022-09-17T09:51:30;100034.13;;;27.11;38.83
51178;BME280;37243;49.814;8.652;2022-09-17T09:54:15;100027.13;;;27.14;38.65
51178;BME280;37243;49.814;8.652;2022-09-17T09:56:56;100032.97;;;27.12;38.69
51178;BME280;37243;49.814;8.652;2022-09-17T09:59:28;100030.69;;;27.14;38.05
51178;BME280;37243;49.814;8.652;2022-09-17T10:01:56;100030.69;;;27.14;38.76
51178;BME280;37243;49.814;8.652;2022-09-17T10:04:26;100025.53;;;27.13;38.39
51178;BME280;37243;49.814;8.652;2022-09-17T10:07:00;100018.19;;;27.17;37.98
51178;BME280;37243;49.814;8.652;2022-09-17T10:09:33;100017.72;;;27.15;38.66
51178;BME280;37243;49.814;8.652;2022-09-17T10:12:09;100033.91;;;27.16;38.34
51178;BME280;37243;49.814;8.652;2022-09-17T10:14:43;100041.03;;;27.17;37.94
51178;BME280;37243;49.814;8.652;2022-09-17T10:17:20;100070.19;;;27.18;38.08
51178;BME280;37243;49.814;8.652;2022-09-17T10:20:14;100094.59;;;27.20;38.26
51178;BME280;37243;49.814;8.652;2022-09-17T10:22:43;100113.06;;;27.19;37.92
51178;BME280;37243;49.814;8.652;2022-09-17T10:25:23;100104.81;;;27.19;38.44
51178;BME280;37243;49.814;8.652;2022-09-17T10:27:55;100092.22;;;27.18;38.74
51178;BME280;37243;49.814;8.652;2022-09-17T10:30:24;100084.41;;;27.20;38.05
51178;BME280;37243;49.814;8.652;2022-09-17T10:33:14;100079.56;;;27.17;37.78
51178;BME280;37243;49.814;8.652;2022-09-17T10:35:54;100075.09;;;27.13;38.01
51178;BME280;37243;49.814;8.652;2022-09-17T10:38:41;100066.47;;;27.14;37.95
51178;BME280;37243;49.814;8.652;2022-09-17T10:41:18;100063.72;;;27.14;37.48
51178;BME280;37243;49.814;8.652;2022-09-17T10:43:47;100066.03;;;27.12;37.17
51178;BME280;37243;49.814;8.652;2022-09-17T10:46:18;100056.97;;;27.12;37.84
51178;BME280;37243;49.814;8.652;2022-09-17T10:48:56;100066.72;;;27.09;37.63
51178;BME280;37243;49.814;8.652;2022-09-17T10:51:26;100074.28;;;27.12;37.82
51178;BME280;37243;49.814;8.652;2022-09-17T10:54:04;100067.16;;;27.11;37.83
51178;BME280;37243;49.814;8.652;2022-09-17T10:56:39;100073.13;;;27.13;37.77
51178;BME280;37243;49.814;8.652;2022-09-17T11:02:35;100069.25;;;27.14;37.96
51178;BME280;37243;49.814;8.652;2022-09-17T11:05:22;100066.84;;;27.13;38.57
51178;BME280;37243;49.814;8.652;2022-09-17T11:07:57;100065.53;;;27.10;38.25
51178;BME280;37243;49.814;8.652;2022-09-17T11:10:30;100066.03;;;27.12;38.00
51178;BME280;37243;49.814;8.652;2022-09-17T11:13:13;100070.38;;;27.13;38.42
51178;BME280;37243;49.814;8.652;2022-09-17T11:15:56;100064.88;;;27.13;38.70
51178;BME280;37243;49.814;8.652;2022-09-17T11:18:35;100059.34;;;27.13;38.39
51178;BME280;37243;49.814;8.652;2022-09-17T11:21:16;100059.03;;;27.15;38.47
51178;BME280;37243;49.814;8.652;2022-09-17T11:24:03;100063.28;;;27.12;38.35
51178;BME280;37243;49.814;8.652;2022-09-17T11:26:40;100062.09;;;27.13;38.59
51178;BME280;37243;49.814;8.652;2022-09-17T11:29:26;100054.34;;;27.15;38.20
51178;BME280;37243;49.814;8.652;2022-09-17T11:32:05;100055.16;;;27.16;38.92
51178;BME280;37243;49.814;8.652;2022-09-17T11:34:41;100054.78;;;27.17;38.03
51178;BME280;37243;49.814;8.652;2022-09-17T11:37:19;100058.69;;;27.16;38.60
51178;BME280;37243;49.814;8.652;2022-09-17T11:39:52;100053.16;;;27.16;38.89
51178;BME280;37243;49.814;8.652;2022-09-17T11:42:23;100039.41;;;27.16;38.89
51178;BME280;37243;49.814;8.652;2022-09-17T11:44:59;100041.69;;;27.14;38.33
51178;BME280;37243;49.814;8.652;2022-09-17T11:47:31;100037.00;;;27.15;38.63
51178;BME280;37243;49.814;8.652;2022-09-17T11:50:03;100033.91;;;27.16;37.93
51178;BME280;37243;49.814;8.652;2022-09-17T11:52:37;100030.00;;;27.17;38.95
51178;BME280;37243;49.814;8.652;2022-09-17T11:55:17;100022.88;;;27.16;38.24
51178;BME280;37243;49.814;8.652;2022-09-17T11:57:49;100019.78;;;27.18;38.51
51178;BME280;37243;49.814;8.652;2022-09-17T12:00:23;100014.28;;;27.18;38.81
51178;BME280;37243;49.814;8.652;2022-09-17T12:02:55;100015.88;;;27.19;38.61
51178;BME280;37243;49.814;8.652;2022-09-17T12:05:27;100009.09;;;27.16;38.90
51178;BME280;37243;49.814;8.652;2022-09-17T12:08:02;100008.44;;;27.19;38.89
51178;BME280;37243;49.814;8.652;2022-09-17T12:10:40;100017.50;;;27.20;38.25
51178;BME280;37243;49.814;8.652;2022-09-17T12:13:17;100004.88;;;27.19;38.12
51178;BME280;37243;49.814;8.652;2022-09-17T12:15:51;99994.22;;;27.17;38.81
51178;BME280;37243;49.814;8.652;2022-09-17T12:18:32;99989.84;;;27.16;38.92
51178;BME280;37243;49.814;8.652;2022-09-17T12:21:07;99990.31;;;27.18;38.11
51178;BME280;37243;49.814;8.652;2022-09-17T12:23:41;99992.25;;;27.18;38.21
51178;BME280;37243;49.814;8.652;2022-09-17T12:26:22;99985.59;;;27.19;38.38
51178;BME280;37243;49.814;8.652;2022-09-17T12:28:59;99982.50;;;27.20;38.86
51178;BME280;37243;49.814;8.652;2022-09-17T12:31:39;99982.16;;;27.22;38.89
51178;BME280;37243;49.814;8.652;2022-09-17T12:34:22;99983.31;;;27.21;38.13
51178;BME280;37243;49.814;8.652;2022-09-17T12:37:00;99977.81;;;27.21;38.13
51178;BME280;37243;49.814;8.652;2022-09-17T12:39:41;99968.75;;;27.20;37.30
51178;BME280;37243;49.814;8.652;2022-09-17T12:42:24;99972.31;;;27.21;38.17
51178;BME280;37243;49.814;8.652;2022-09-17T12:45:13;99975.97;;;27.25;38.12
51178;BME280;37243;49.814;8.652;2022-09-17T12:48:00;99970.44;;;27.25;38.64
51178;BME280;37243;49.814;8.652;2022-09-17T12:50:44;99966.44;;;27.22;38.79
51178;BME280;37243;49.814;8.652;2022-09-17T12:53:22;99961.06;;;27.26;39.04
51178;BME280;37243;49.814;8.652;2022-09-17T12:56:18;99961.06;;;27.26;38.46
51178;BME280;37243;49.814;8.652;2022-09-17T12:59:03;99961.84;;;27.26;39.22
51178;BME280;37243;49.814;8.652;2022-09-17T13:01:35;99949.22;;;27.25;39.03
51178;BME280;37243;49.814;8.652;2022-09-17T13:04:18;99945.34;;;27.26;38.82
51178;BME280;37243;49.814;8.652;2022-09-17T13:07:14;99947.28;;;27.26;39.08
51178;BME280;37243;49.814;8.652;2022-09-17T13:09:57;99935.44;;;27.25;39.13
51178;BME280;37243;49.814;8.652;2022-09-17T13:12:31;99941.78;;;27.26;38.78
51178;BME280;37243;49.814;8.652;2022-09-17T13:15:19;99939.03;;;27.26;39.64
51178;BME280;37243;49.814;8.652;2022-09-17T13:17:59;99939.81;;;27.26;39.36
51178;BME280;37243;49.814;8.652;2022-09-17T13:20:36;99942.59;;;27.26;39.34
51178;BME280;37243;49.814;8.652;2022-09-17T13:23:08;99932.69;;;27.25;39.23
51178;BME280;37243;49.814;8.652;2022-09-17T13:25:48;99929.13;;;27.25;39.46
51178;BME280;37243;49.814;8.652;2022-09-17T13:28:19;99938.22;;;27.25;39.61
51178;BME280;37243;49.814;8.652;2022-09-17T13:30:58;99931.13;;;27.24;39.58
51178;BME280;37243;49.814;8.652;2022-09-17T13:33:53;99926.88;;;27.27;39.78
51178;BME280;37243;49.814;8.652;2022-09-17T13:36:39;99927.66;;;27.27;39.84
51178;BME280;37243;49.814;8.652;2022-09-17T13:39:10;99930.19;;;27.20;38.59